Time;durP1;ratioP1;P1;durP2;ratioP2;P2;SDS_P1;SDS_P2;PMS_P1;PMS_P2;Temp;Humidity;BMP_temperature;BMP_pressure;BME280_temperature;BME280_humidity;BME280_pressure;Samples;Min_cycle;Max_cycle;Signal;HPM_P1;HPM_P2
2023/06/27 00:00:57;;;;;;;21.50;3.58;;;;;;;;;;5028020;28;20053;-50
2023/06/27 00:03:25;;;;;;;17.92;3.38;;;;;;;;;;5030605;28;20041;-49
2023/06/27 00:05:52;;;;;;;27.15;4.20;;;;;;;;;;5028838;28;20030;-47
2023/06/27 00:08:19;;;;;;;22.83;4.00;;;;;;;;;;5030316;28;20399;-47
2023/06/27 00:10:46;;;;;;;36.05;5.13;;;;;;;;;;5030034;28;20037;-49
2023/06/27 00:13:15;;;;;;;26.85;6.30;;;;;;;;;;5030774;28;20029;-48
2023/06/27 00:15:42;;;;;;;28.00;6.20;;;;;;;;;;5035245;28;20033;-49
2023/06/27 00:18:10;;;;;;;30.05;8.25;;;;;;;;;;5035215;28;20477;-49
2023/06/27 00:20:37;;;;;;;43.25;9.15;;;;;;;;;;5034673;28;20117;-49
2023/06/27 00:23:17;;;;;;;39.40;9.82;;;;;;;;;;5035278;28;20086;-49
2023/06/27 00:25:45;;;;;;;48.42;10.93;;;;;;;;;;5035110;28;20025;-48
2023/06/27 00:28:12;;;;;;;40.42;10.68;;;;;;;;;;5034773;28;20033;-47
2023/06/27 00:30:39;;;;;;;42.72;11.80;;;;;;;;;;5034916;28;20068;-50
2023/06/27 00:33:06;;;;;;;41.03;11.18;;;;;;;;;;5034567;28;20068;-48
2023/06/27 00:35:34;;;;;;;38.50;11.25;;;;;;;;;;5034872;28;20029;-47
2023/06/27 00:38:02;;;;;;;45.08;11.68;;;;;;;;;;5034852;28;20034;-50
2023/06/27 00:40:29;;;;;;;38.42;10.98;;;;;;;;;;5034738;28;20025;-48
2023/06/27 00:42:56;;;;;;;45.03;11.95;;;;;;;;;;5034775;28;20041;-48
2023/06/27 00:45:23;;;;;;;49.40;12.57;;;;;;;;;;5034436;28;20037;-48
2023/06/27 00:47:52;;;;;;;42.30;12.18;;;;;;;;;;5034264;28;20041;-47
2023/06/27 00:50:21;;;;;;;41.63;12.00;;;;;;;;;;5030044;28;20480;-49
2023/06/27 00:52:48;;;;;;;44.70;11.55;;;;;;;;;;5014724;28;20034;-49
2023/06/27 00:55:15;;;;;;;44.88;12.15;;;;;;;;;;5031694;28;20029;-48
2023/06/27 00:57:42;;;;;;;41.67;11.45;;;;;;;;;;5020766;28;20033;-47
2023/06/27 01:03:18;;;;;;;55.72;12.30;;;;;;;;;;4990918;27;2526630;-49
2023/06/27 01:05:45;;;;;;;54.65;13.00;;;;;;;;;;5066810;28;20033;-51
2023/06/27 01:08:32;;;;;;;51.10;11.75;;;;;;;;;;5067531;28;20028;-48
2023/06/27 01:11:12;;;;;;;50.70;11.60;;;;;;;;;;5066341;28;20033;-48
2023/06/27 01:13:43;;;;;;;41.05;11.35;;;;;;;;;;5066375;28;20021;-47
2023/06/27 01:16:11;;;;;;;40.58;12.18;;;;;;;;;;5065314;28;20056;-49
2023/06/27 01:18:41;;;;;;;42.65;12.25;;;;;;;;;;5066727;28;20037;-49
2023/06/27 01:21:08;;;;;;;38.10;11.15;;;;;;;;;;5065160;28;20091;-47
2023/06/27 01:23:40;;;;;;;37.33;10.77;;;;;;;;;;5066461;28;20025;-48
2023/06/27 01:26:10;;;;;;;;;;;;;;;;;;5066056;28;20024;-46
2023/06/27 01:28:37;;;;;;;30.75;11.00;;;;;;;;;;5066742;28;19991;-48
2023/06/27 01:31:04;;;;;;;30.80;10.55;;;;;;;;;;5065363;28;20036;-48
2023/06/27 01:33:54;;;;;;;33.13;11.50;;;;;;;;;;5066321;28;20028;-48
2023/06/27 01:36:23;;;;;;;33.53;10.48;;;;;;;;;;5044286;28;20045;-50
2023/06/27 01:39:13;;;;;;;29.23;10.05;;;;;;;;;;5066626;28;20028;-48
2023/06/27 01:41:42;;;;;;;29.73;9.00;;;;;;;;;;5042984;28;20041;-51
2023/06/27 01:44:10;;;;;;;30.77;10.23;;;;;;;;;;5046866;28;20359;-47
2023/06/27 01:46:38;;;;;;;32.83;10.30;;;;;;;;;;5067269;28;20700;-47
2023/06/27 01:49:05;;;;;;;30.10;10.75;;;;;;;;;;5068031;28;20024;-47
2023/06/27 01:51:33;;;;;;;27.42;9.75;;;;;;;;;;5067848;28;20398;-50
2023/06/27 01:54:00;;;;;;;28.95;9.93;;;;;;;;;;5068048;28;20021;-48
2023/06/27 01:56:27;;;;;;;33.60;10.40;;;;;;;;;;5066839;28;20024;-49
2023/06/27 01:58:54;;;;;;;32.90;10.13;;;;;;;;;;5067299;28;20028;-50
2023/06/27 02:04:20;;;;;;;27.25;9.32;;;;;;;;;;4880615;27;5285984;-49
2023/06/27 02:06:47;;;;;;;24.83;9.25;;;;;;;;;;5059322;28;20022;-48
2023/06/27 02:09:14;;;;;;;29.75;9.38;;;;;;;;;;5057846;28;20028;-47
2023/06/27 02:11:42;;;;;;;28.88;9.43;;;;;;;;;;5057657;28;20077;-48
2023/06/27 02:14:09;;;;;;;24.67;8.80;;;;;;;;;;5059040;28;20500;-49
2023/06/27 02:16:36;;;;;;;23.73;8.63;;;;;;;;;;5056462;28;20032;-48
2023/06/27 02:19:03;;;;;;;24.33;8.50;;;;;;;;;;5058857;28;20082;-50
2023/06/27 02:21:30;;;;;;;26.88;8.38;;;;;;;;;;5056773;28;20029;-48
2023/06/27 02:23:57;;;;;;;24.52;8.60;;;;;;;;;;5057971;28;20041;-47
2023/06/27 02:26:24;;;;;;;26.40;9.13;;;;;;;;;;5058648;28;20033;-50
2023/06/27 02:28:51;;;;;;;20.17;7.97;;;;;;;;;;5057386;28;20036;-47
2023/06/27 02:31:19;;;;;;;26.13;8.82;;;;;;;;;;5039912;28;20029;-47
2023/06/27 02:33:46;;;;;;;23.23;8.00;;;;;;;;;;5059605;28;20032;-49
2023/06/27 02:36:13;;;;;;;26.02;8.02;;;;;;;;;;5068209;28;20059;-48
2023/06/27 02:38:40;;;;;;;21.02;7.38;;;;;;;;;;5068263;28;20083;-48
2023/06/27 02:41:07;;;;;;;18.90;7.57;;;;;;;;;;5068318;28;20024;-48
2023/06/27 02:43:35;;;;;;;18.25;7.18;;;;;;;;;;5068032;28;20037;-47
2023/06/27 02:46:02;;;;;;;17.77;7.35;;;;;;;;;;5068203;28;20028;-47
2023/06/27 02:48:29;;;;;;;22.20;7.95;;;;;;;;;;5068016;28;20486;-47
2023/06/27 02:50:56;;;;;;;13.73;6.40;;;;;;;;;;5067863;28;20738;-48
2023/06/27 02:53:24;;;;;;;16.25;6.90;;;;;;;;;;5067960;28;20517;-47
2023/06/27 02:55:51;;;;;;;17.90;7.47;;;;;;;;;;5049833;28;20025;-47
2023/06/27 02:58:18;;;;;;;15.90;6.68;;;;;;;;;;5067839;28;20028;-49
2023/06/27 03:00:45;;;;;;;18.75;7.32;;;;;;;;;;5067835;28;20449;-48
2023/06/27 03:03:12;;;;;;;17.83;6.38;;;;;;;;;;5067614;28;20040;-49
2023/06/27 03:05:39;;;;;;;16.92;6.57;;;;;;;;;;5067532;28;20135;-47
2023/06/27 03:08:06;;;;;;;15.05;6.57;;;;;;;;;;5067670;28;20029;-47
2023/06/27 03:10:33;;;;;;;14.13;6.32;;;;;;;;;;5067661;28;20417;-47
2023/06/27 03:13:00;;;;;;;18.70;6.40;;;;;;;;;;5067539;28;20025;-47
2023/06/27 03:15:27;;;;;;;17.10;5.75;;;;;;;;;;5047556;28;20041;-49
2023/06/27 03:17:54;;;;;;;15.32;6.38;;;;;;;;;;5044454;28;20029;-48
2023/06/27 03:20:21;;;;;;;14.98;6.63;;;;;;;;;;5043500;28;20068;-49
2023/06/27 03:22:49;;;;;;;13.07;5.30;;;;;;;;;;5042633;28;20139;-47
2023/06/27 03:25:16;;;;;;;14.02;6.05;;;;;;;;;;5044575;28;20035;-49
2023/06/27 03:27:43;;;;;;;15.43;5.95;;;;;;;;;;5025715;28;20518;-48
2023/06/27 03:30:10;;;;;;;13.52;5.22;;;;;;;;;;5042589;28;20048;-49
2023/06/27 03:32:37;;;;;;;13.98;5.53;;;;;;;;;;5040101;28;20095;-49
2023/06/27 03:35:04;;;;;;;14.65;5.50;;;;;;;;;;5043247;28;20149;-49
2023/06/27 03:37:33;;;;;;;15.75;5.97;;;;;;;;;;5044395;28;20043;-48
2023/06/27 03:40:00;;;;;;;15.10;5.20;;;;;;;;;;5043160;28;20171;-50
2023/06/27 03:42:27;;;;;;;12.30;5.00;;;;;;;;;;5041638;28;20037;-48
2023/06/27 03:44:54;;;;;;;11.40;5.03;;;;;;;;;;5043569;28;20025;-47
2023/06/27 03:47:23;;;;;;;12.32;5.45;;;;;;;;;;5043944;28;20029;-48
2023/06/27 03:49:50;;;;;;;10.52;4.75;;;;;;;;;;5039541;28;20383;-48
2023/06/27 03:52:17;;;;;;;11.57;4.90;;;;;;;;;;5043150;28;20033;-47
2023/06/27 03:54:44;;;;;;;11.52;4.80;;;;;;;;;;5044061;28;20033;-49
2023/06/27 03:57:11;;;;;;;9.75;4.65;;;;;;;;;;5042189;28;20030;-48
2023/06/27 03:59:37;;;;;;;9.73;4.63;;;;;;;;;;5025007;28;20363;-49
2023/06/27 04:02:05;;;;;;;11.13;4.68;;;;;;;;;;5043865;28;20048;-50
2023/06/27 04:04:31;;;;;;;10.23;4.60;;;;;;;;;;5041651;28;20049;-47
2023/06/27 04:06:58;;;;;;;9.23;4.32;;;;;;;;;;5047601;28;20033;-49
2023/06/27 04:09:25;;;;;;;9.38;4.20;;;;;;;;;;5053333;28;20056;-49
2023/06/27 04:11:52;;;;;;;10.07;4.32;;;;;;;;;;5053363;28;20032;-48
2023/06/27 04:14:19;;;;;;;10.68;4.60;;;;;;;;;;5053262;28;20036;-51
2023/06/27 04:16:46;;;;;;;12.32;4.47;;;;;;;;;;5053249;28;20086;-48
2023/06/27 04:19:13;;;;;;;8.95;4.15;;;;;;;;;;5053181;28;20025;-49
2023/06/27 04:21:40;;;;;;;11.90;4.22;;;;;;;;;;5053198;28;20029;-48
2023/06/27 04:24:07;;;;;;;10.82;3.83;;;;;;;;;;5052626;28;20044;-48
2023/06/27 04:26:34;;;;;;;11.38;4.38;;;;;;;;;;5052063;28;20102;-49
2023/06/27 04:29:02;;;;;;;10.25;3.95;;;;;;;;;;5053015;28;20394;-48
2023/06/27 04:31:29;;;;;;;8.18;3.90;;;;;;;;;;5052844;28;20037;-49
2023/06/27 04:33:59;;;;;;;7.75;3.53;;;;;;;;;;5052850;28;20029;-48
2023/06/27 04:36:29;;;;;;;10.02;3.70;;;;;;;;;;5052687;28;20036;-48
2023/06/27 04:38:56;;;;;;;8.35;3.65;;;;;;;;;;5052826;28;20036;-48
2023/06/27 04:41:28;;;;;;;7.90;3.70;;;;;;;;;;5052824;28;20487;-48
2023/06/27 04:43:57;;;;;;;9.80;3.85;;;;;;;;;;5052347;28;20037;-49
2023/06/27 04:46:27;;;;;;;7.72;3.65;;;;;;;;;;5052548;28;20547;-48
2023/06/27 04:48:56;;;;;;;8.05;3.33;;;;;;;;;;5052716;28;20083;-48
2023/06/27 04:51:30;;;;;;;7.97;3.70;;;;;;;;;;5052425;28;20045;-48
2023/06/27 04:53:57;;;;;;;7.72;3.92;;;;;;;;;;5052303;28;20029;-48
2023/06/27 04:56:24;;;;;;;6.40;3.28;;;;;;;;;;5052458;28;20082;-49
2023/06/27 04:58:52;;;;;;;9.20;3.35;;;;;;;;;;5052453;28;20036;-48
2023/06/27 05:01:19;;;;;;;6.65;3.13;;;;;;;;;;5052391;28;20036;-49
2023/06/27 05:03:47;;;;;;;6.50;3.70;;;;;;;;;;5052000;28;20033;-49
2023/06/27 05:06:14;;;;;;;6.57;3.03;;;;;;;;;;5052256;28;20040;-48
2023/06/27 05:08:41;;;;;;;6.40;3.40;;;;;;;;;;5052111;28;20036;-49
2023/06/27 05:11:08;;;;;;;9.25;3.92;;;;;;;;;;5034313;28;20078;-49
2023/06/27 05:13:35;;;;;;;9.02;3.30;;;;;;;;;;5052081;28;20041;-49
2023/06/27 05:16:02;;;;;;;5.95;3.00;;;;;;;;;;5052141;28;20032;-48
2023/06/27 05:18:29;;;;;;;5.95;2.83;;;;;;;;;;5051959;28;20143;-48
2023/06/27 05:20:56;;;;;;;7.57;3.58;;;;;;;;;;5052008;28;20029;-49
2023/06/27 05:23:23;;;;;;;8.30;3.00;;;;;;;;;;5051658;28;20446;-49
2023/06/27 05:25:51;;;;;;;7.30;3.05;;;;;;;;;;5052093;28;20399;-49
2023/06/27 05:28:18;;;;;;;5.43;2.63;;;;;;;;;;5051939;28;20033;-48
2023/06/27 05:30:45;;;;;;;8.15;3.22;;;;;;;;;;5051873;28;20049;-48
2023/06/27 05:33:12;;;;;;;5.00;2.95;;;;;;;;;;5051735;28;20029;-48
2023/06/27 05:35:39;;;;;;;4.97;2.55;;;;;;;;;;5051757;28;20100;-49
2023/06/27 05:38:06;;;;;;;4.90;2.63;;;;;;;;;;5051498;28;20128;-50
2023/06/27 05:40:34;;;;;;;5.63;2.65;;;;;;;;;;5051795;28;20088;-48
2023/06/27 05:43:01;;;;;;;5.65;2.83;;;;;;;;;;5051597;28;20040;-48
2023/06/27 05:45:28;;;;;;;7.45;2.58;;;;;;;;;;5051695;28;20036;-49
2023/06/27 05:47:55;;;;;;;5.32;2.70;;;;;;;;;;5051662;28;20033;-48
2023/06/27 05:50:22;;;;;;;5.55;2.72;;;;;;;;;;5051579;28;20104;-49
2023/06/27 05:52:49;;;;;;;5.70;2.78;;;;;;;;;;5051564;28;20111;-47
2023/06/27 05:55:16;;;;;;;6.75;2.50;;;;;;;;;;5051554;28;20027;-47
2023/06/27 05:57:43;;;;;;;5.05;2.85;;;;;;;;;;5051637;28;20024;-48
2023/06/27 06:00:11;;;;;;;4.50;2.20;;;;;;;;;;5051561;28;20059;-47
2023/06/27 06:02:38;;;;;;;4.03;2.40;;;;;;;;;;5033600;28;20835;-49
2023/06/27 06:05:05;;;;;;;5.75;2.78;;;;;;;;;;5031342;28;20056;-48
2023/06/27 06:07:32;;;;;;;4.18;2.40;;;;;;;;;;5031512;28;20033;-50
2023/06/27 06:09:59;;;;;;;4.72;2.40;;;;;;;;;;5031495;28;20037;-48
2023/06/27 06:12:26;;;;;;;4.80;2.30;;;;;;;;;;5031420;28;20032;-48
2023/06/27 06:14:53;;;;;;;4.88;2.05;;;;;;;;;;5031537;28;20057;-49
2023/06/27 06:17:20;;;;;;;5.75;2.67;;;;;;;;;;5031430;28;20555;-48
2023/06/27 06:19:47;;;;;;;4.78;2.20;;;;;;;;;;5031493;28;20574;-49
2023/06/27 06:22:14;;;;;;;4.22;2.30;;;;;;;;;;5031283;28;20048;-48
2023/06/27 06:24:41;;;;;;;3.60;2.28;;;;;;;;;;5031447;28;20129;-48
2023/06/27 06:27:08;;;;;;;4.85;2.05;;;;;;;;;;5031331;28;20033;-52
2023/06/27 06:29:35;;;;;;;6.47;2.50;;;;;;;;;;5031378;28;20032;-48
2023/06/27 06:32:02;;;;;;;3.17;2.20;;;;;;;;;;5031401;28;20079;-51
2023/06/27 06:34:29;;;;;;;4.38;2.40;;;;;;;;;;5013615;28;20167;-49
2023/06/27 06:36:56;;;;;;;3.63;2.22;;;;;;;;;;5031307;28;20128;-48
2023/06/27 06:39:23;;;;;;;4.45;2.00;;;;;;;;;;5031217;28;20049;-50
2023/06/27 06:41:50;;;;;;;3.55;2.03;;;;;;;;;;5031201;28;20033;-48
2023/06/27 06:44:17;;;;;;;4.13;2.10;;;;;;;;;;5031104;28;20060;-48
2023/06/27 06:46:44;;;;;;;3.83;2.20;;;;;;;;;;5031086;28;20410;-52
2023/06/27 06:49:11;;;;;;;5.30;2.10;;;;;;;;;;5032169;28;20028;-48
2023/06/27 06:51:38;;;;;;;4.32;2.15;;;;;;;;;;5034933;28;20026;-49
2023/06/27 06:54:05;;;;;;;3.15;2.00;;;;;;;;;;5034858;28;20430;-50
2023/06/27 06:56:32;;;;;;;3.40;2.10;;;;;;;;;;5034922;28;20100;-48
2023/06/27 06:59:00;;;;;;;4.80;2.35;;;;;;;;;;5034868;28;20029;-49
2023/06/27 07:01:28;;;;;;;5.95;2.25;;;;;;;;;;5034711;28;20025;-48
2023/06/27 07:03:55;;;;;;;4.60;2.13;;;;;;;;;;5034201;28;20041;-49
2023/06/27 07:06:22;;;;;;;4.20;2.05;;;;;;;;;;5034658;28;20044;-48
2023/06/27 07:08:49;;;;;;;4.57;2.25;;;;;;;;;;5034583;28;20553;-50
2023/06/27 07:11:16;;;;;;;4.05;2.00;;;;;;;;;;5034604;28;20041;-51
2023/06/27 07:13:43;;;;;;;3.97;2.05;;;;;;;;;;5034460;28;20495;-49
2023/06/27 07:16:10;;;;;;;3.58;1.77;;;;;;;;;;5034251;28;20029;-48
2023/06/27 07:18:37;;;;;;;3.10;1.85;;;;;;;;;;5034391;28;20025;-48
2023/06/27 07:21:04;;;;;;;4.13;1.80;;;;;;;;;;5034494;28;20037;-48
2023/06/27 07:23:31;;;;;;;3.67;1.80;;;;;;;;;;5034185;28;20041;-49
2023/06/27 07:25:58;;;;;;;3.88;1.80;;;;;;;;;;5034281;28;20034;-49
2023/06/27 07:28:25;;;;;;;4.05;1.80;;;;;;;;;;5034158;28;20030;-49
2023/06/27 07:30:53;;;;;;;4.13;1.63;;;;;;;;;;5034203;28;20076;-52
2023/06/27 07:33:20;;;;;;;2.28;1.58;;;;;;;;;;5034108;28;20495;-51
2023/06/27 07:35:47;;;;;;;2.92;1.70;;;;;;;;;;5034039;28;20032;-50
2023/06/27 07:38:16;;;;;;;3.35;2.00;;;;;;;;;;5033902;28;20394;-48
2023/06/27 07:40:43;;;;;;;2.85;1.80;;;;;;;;;;5033821;28;20033;-48
2023/06/27 07:43:10;;;;;;;3.53;1.90;;;;;;;;;;5033848;28;20110;-49
2023/06/27 07:45:37;;;;;;;2.65;1.80;;;;;;;;;;5033956;28;20045;-49
2023/06/27 07:48:05;;;;;;;3.15;1.80;;;;;;;;;;5033944;28;20040;-48
2023/06/27 07:50:32;;;;;;;2.13;1.48;;;;;;;;;;5033881;28;20025;-48
2023/06/27 07:52:59;;;;;;;3.05;1.70;;;;;;;;;;5033682;28;20048;-48
2023/06/27 07:55:26;;;;;;;3.17;1.80;;;;;;;;;;5033734;28;20030;-49
2023/06/27 07:57:53;;;;;;;2.00;1.60;;;;;;;;;;5013983;28;20483;-49
2023/06/27 08:00:21;;;;;;;2.63;1.50;;;;;;;;;;5013831;28;20469;-48
2023/06/27 08:02:48;;;;;;;2.33;1.42;;;;;;;;;;5013527;28;20038;-50
2023/06/27 08:05:15;;;;;;;5.55;1.83;;;;;;;;;;5013548;28;20046;-51
2023/06/27 08:07:42;;;;;;;3.50;1.73;;;;;;;;;;5013792;28;20503;-48
2023/06/27 08:10:09;;;;;;;2.00;1.30;;;;;;;;;;5013762;28;20034;-48
2023/06/27 08:12:36;;;;;;;2.25;1.50;;;;;;;;;;5013619;28;20044;-49
2023/06/27 08:15:03;;;;;;;2.70;1.63;;;;;;;;;;5013659;28;20034;-49
2023/06/27 08:17:30;;;;;;;3.28;1.73;;;;;;;;;;5013472;28;20423;-48
2023/06/27 08:19:57;;;;;;;3.00;1.65;;;;;;;;;;5013392;28;20026;-50
2023/06/27 08:22:24;;;;;;;4.05;1.80;;;;;;;;;;5013282;28;20112;-49
2023/06/27 08:24:51;;;;;;;2.90;1.60;;;;;;;;;;5013450;28;20033;-49
2023/06/27 08:27:18;;;;;;;2.47;1.52;;;;;;;;;;5013385;28;20104;-48
2023/06/27 08:29:46;;;;;;;2.22;1.50;;;;;;;;;;5013318;28;20030;-49
2023/06/27 08:32:13;;;;;;;2.58;1.70;;;;;;;;;;5013209;28;20112;-48
2023/06/27 08:34:41;;;;;;;2.90;1.48;;;;;;;;;;5013323;28;20428;-49
2023/06/27 08:37:08;;;;;;;2.90;1.80;;;;;;;;;;5012997;28;20045;-48
2023/06/27 08:39:36;;;;;;;3.78;1.70;;;;;;;;;;5013038;28;20026;-48
2023/06/27 08:42:03;;;;;;;2.53;1.50;;;;;;;;;;5013081;28;20042;-49
2023/06/27 08:44:30;;;;;;;3.38;1.40;;;;;;;;;;5013066;28;20022;-49
2023/06/27 08:47:05;;;;;;;2.10;1.35;;;;;;;;;;5013157;28;20118;-48
2023/06/27 08:49:33;;;;;;;2.25;1.48;;;;;;;;;;5012949;28;20036;-49
2023/06/27 08:52:02;;;;;;;2.58;1.40;;;;;;;;;;5012828;28;20479;-48
2023/06/27 08:54:32;;;;;;;2.97;1.38;;;;;;;;;;5012893;28;20507;-49
2023/06/27 08:57:02;;;;;;;3.67;1.38;;;;;;;;;;5012754;28;20436;-50
2023/06/27 08:59:32;;;;;;;2.00;1.30;;;;;;;;;;5012611;28;20089;-48
2023/06/27 09:02:00;;;;;;;2.53;1.40;;;;;;;;;;5012592;28;20030;-49
2023/06/27 09:04:28;;;;;;;2.78;1.40;;;;;;;;;;5012430;28;20459;-49
2023/06/27 09:06:55;;;;;;;1.73;1.20;;;;;;;;;;5012640;28;20101;-49
2023/06/27 09:09:22;;;;;;;2.15;1.50;;;;;;;;;;5012668;28;20404;-51
2023/06/27 09:11:50;;;;;;;2.40;1.65;;;;;;;;;;5011956;28;20022;-48
2023/06/27 09:14:18;;;;;;;2.15;1.45;;;;;;;;;;5012563;28;20030;-48
2023/06/27 09:16:45;;;;;;;2.78;1.40;;;;;;;;;;5012508;28;20022;-48
2023/06/27 09:19:14;;;;;;;1.83;1.40;;;;;;;;;;5012799;28;20022;-48
2023/06/27 09:21:42;;;;;;;1.88;1.25;;;;;;;;;;4994649;28;20025;-49
2023/06/27 09:24:14;;;;;;;1.85;1.33;;;;;;;;;;5012171;28;20128;-48
2023/06/27 09:26:41;;;;;;;2.63;1.60;;;;;;;;;;5012159;28;20030;-49
2023/06/27 09:29:08;;;;;;;2.50;1.15;;;;;;;;;;5012290;28;20265;-52
2023/06/27 09:31:35;;;;;;;1.73;1.38;;;;;;;;;;5012228;28;20557;-49
2023/06/27 09:34:06;;;;;;;2.00;1.50;;;;;;;;;;5012145;28;20112;-49
2023/06/27 09:36:34;;;;;;;2.42;1.50;;;;;;;;;;5012269;28;20483;-54
2023/06/27 09:39:01;;;;;;;1.98;1.38;;;;;;;;;;5025207;28;20033;-51
2023/06/27 09:41:49;;;;;;;2.20;1.40;;;;;;;;;;5051655;28;20033;-51
2023/06/27 09:44:19;;;;;;;2.20;1.38;;;;;;;;;;5051649;28;20086;-48
2023/06/27 09:46:47;;;;;;;5.07;1.50;;;;;;;;;;5044336;28;20770;-47
2023/06/27 09:49:18;;;;;;;4.38;1.77;;;;;;;;;;5050669;28;20063;-47
2023/06/27 09:51:52;;;;;;;4.68;1.60;;;;;;;;;;5051092;28;20044;-47
2023/06/27 09:54:25;;;;;;;4.65;1.83;;;;;;;;;;5051302;28;20033;-47
2023/06/27 09:56:54;;;;;;;2.75;1.80;;;;;;;;;;5051395;28;20071;-47
2023/06/27 09:59:22;;;;;;;3.58;1.70;;;;;;;;;;5051416;28;20501;-48
2023/06/27 10:01:51;;;;;;;4.80;1.90;;;;;;;;;;5051337;28;20033;-48
2023/06/27 10:04:18;;;;;;;4.50;1.88;;;;;;;;;;5035420;28;20072;-47
2023/06/27 10:06:45;;;;;;;4.20;1.70;;;;;;;;;;5045601;28;20033;-48
2023/06/27 10:09:12;;;;;;;4.43;1.95;;;;;;;;;;5051450;28;20032;-47
2023/06/27 10:11:39;;;;;;;7.10;1.60;;;;;;;;;;5051191;28;20378;-48
2023/06/27 10:14:06;;;;;;;6.05;2.00;;;;;;;;;;5051251;28;20100;-51
2023/06/27 10:16:34;;;;;;;3.75;1.88;;;;;;;;;;5051383;28;20082;-47
2023/06/27 10:19:02;;;;;;;8.10;2.58;;;;;;;;;;5051410;28;20112;-48
2023/06/27 10:21:29;;;;;;;12.38;2.13;;;;;;;;;;5049887;28;20032;-49
2023/06/27 10:23:58;;;;;;;4.47;1.98;;;;;;;;;;5019599;28;20048;-50
2023/06/27 10:26:29;;;;;;;9.05;2.08;;;;;;;;;;5007985;28;20045;-47
2023/06/27 10:28:56;;;;;;;8.50;2.28;;;;;;;;;;5025890;28;20030;-50
2023/06/27 10:31:44;;;;;;;6.75;2.28;;;;;;;;;;5023993;28;20108;-49
2023/06/27 10:34:20;;;;;;;6.07;2.05;;;;;;;;;;5041281;28;20025;-46
2023/06/27 10:36:56;;;;;;;6.18;2.20;;;;;;;;;;5043242;28;20036;-47
2023/06/27 10:39:30;;;;;;;4.53;1.77;;;;;;;;;;5038346;28;20037;-46
2023/06/27 10:42:01;;;;;;;7.15;2.22;;;;;;;;;;5035004;28;20108;-46
2023/06/27 10:44:29;;;;;;;6.07;2.03;;;;;;;;;;5034995;28;20542;-50
2023/06/27 10:47:15;;;;;;;3.42;1.95;;;;;;;;;;5035048;28;20029;-48
2023/06/27 10:49:53;;;;;;;7.78;2.00;;;;;;;;;;5021396;28;20041;-48
2023/06/27 10:52:24;;;;;;;6.70;2.05;;;;;;;;;;5034914;28;20577;-48
2023/06/27 10:55:10;;;;;;;4.95;1.98;;;;;;;;;;5034935;28;20108;-48
2023/06/27 10:57:40;;;;;;;4.80;1.95;;;;;;;;;;5034810;28;20026;-48
2023/06/27 11:00:23;;;;;;;3.90;1.80;;;;;;;;;;5034798;28;20040;-48
2023/06/27 11:02:53;;;;;;;4.28;2.10;;;;;;;;;;5034458;28;20082;-49
2023/06/27 11:05:36;;;;;;;4.18;1.60;;;;;;;;;;5034246;28;20057;-47
2023/06/27 11:08:03;;;;;;;3.97;1.77;;;;;;;;;;5033915;28;20045;-46
2023/06/27 11:10:31;;;;;;;5.32;2.05;;;;;;;;;;5033906;28;20387;-46
2023/06/27 11:13:17;;;;;;;3.50;1.60;;;;;;;;;;5034233;28;20033;-47
2023/06/27 11:15:45;;;;;;;4.95;2.08;;;;;;;;;;5034190;28;20090;-46
2023/06/27 11:18:16;;;;;;;8.35;2.38;;;;;;;;;;5034246;28;20049;-48
2023/06/27 11:20:43;;;;;;;8.93;2.25;;;;;;;;;;5034211;28;20026;-46
2023/06/27 11:23:10;;;;;;;11.10;2.20;;;;;;;;;;5033996;28;20076;-46
2023/06/27 11:25:38;;;;;;;7.35;1.77;;;;;;;;;;5034162;28;20036;-46
2023/06/27 11:28:06;;;;;;;9.18;2.13;;;;;;;;;;5034074;28;20030;-48
2023/06/27 11:30:33;;;;;;;236.05;13.57;;;;;;;;;;5034075;28;20546;-46
2023/06/27 11:33:01;;;;;;;73.85;7.05;;;;;;;;;;5033793;28;20509;-46
2023/06/27 11:35:29;;;;;;;67.28;4.80;;;;;;;;;;5033332;28;20180;-43
2023/06/27 11:37:56;;;;;;;67.15;5.32;;;;;;;;;;5033952;28;20548;-45
2023/06/27 11:40:26;;;;;;;379.52;17.15;;;;;;;;;;5033979;28;20228;-50
2023/06/27 11:43:03;;;;;;;297.00;18.30;;;;;;;;;;5033711;28;20037;-46
2023/06/27 11:45:33;;;;;;;261.15;15.65;;;;;;;;;;5033794;28;20029;-46
2023/06/27 11:48:01;;;;;;;155.65;9.27;;;;;;;;;;5033747;28;20037;-48
2023/06/27 11:50:29;;;;;;;111.60;7.95;;;;;;;;;;5033692;28;20022;-47
2023/06/27 11:52:57;;;;;;;82.75;7.10;;;;;;;;;;5033590;28;20033;-45
2023/06/27 11:55:24;;;;;;;71.05;6.72;;;;;;;;;;5033614;28;20099;-46
2023/06/27 11:57:58;;;;;;;77.88;7.10;;;;;;;;;;5033387;28;20352;-49
2023/06/27 12:00:27;;;;;;;77.95;6.53;;;;;;;;;;5033457;28;20029;-46
2023/06/27 12:02:54;;;;;;;55.58;5.45;;;;;;;;;;5033318;28;20048;-45
2023/06/27 12:05:22;;;;;;;46.35;5.45;;;;;;;;;;5033362;28;20049;-51
2023/06/27 12:08:04;;;;;;;61.67;5.97;;;;;;;;;;5033332;28;20038;-47
2023/06/27 12:10:52;;;;;;;81.72;7.07;;;;;;;;;;5033481;28;20562;-45
2023/06/27 12:13:19;;;;;;;60.85;7.25;;;;;;;;;;5033302;28;20040;-45
2023/06/27 12:15:47;;;;;;;53.90;6.55;;;;;;;;;;5033323;28;20025;-46
2023/06/27 12:18:24;;;;;;;74.53;8.13;;;;;;;;;;5033220;28;20445;-46
2023/06/27 12:20:55;;;;;;;75.00;7.90;;;;;;;;;;5033206;28;20033;-46
2023/06/27 12:23:22;;;;;;;66.20;7.70;;;;;;;;;;5032992;28;20061;-47
2023/06/27 12:25:50;;;;;;;76.97;7.38;;;;;;;;;;5015329;28;20030;-45
2023/06/27 12:28:17;;;;;;;58.45;7.50;;;;;;;;;;5032937;28;20036;-47
2023/06/27 12:30:44;;;;;;;58.50;7.05;;;;;;;;;;5032904;28;20025;-46
2023/06/27 12:33:11;;;;;;;58.95;7.53;;;;;;;;;;5032840;28;20029;-45
2023/06/27 12:35:39;;;;;;;52.22;7.65;;;;;;;;;;5033013;28;20111;-46
2023/06/27 12:38:07;;;;;;;50.10;6.97;;;;;;;;;;5032685;28;20483;-47
2023/06/27 12:40:35;;;;;;;42.70;7.07;;;;;;;;;;5032713;28;20034;-49
2023/06/27 12:43:05;;;;;;;51.25;6.78;;;;;;;;;;5015448;28;20496;-46
2023/06/27 12:45:32;;;;;;;45.42;6.50;;;;;;;;;;5032890;28;20032;-47
2023/06/27 12:48:00;;;;;;;50.30;6.75;;;;;;;;;;5031971;28;20047;-46
2023/06/27 12:50:27;;;;;;;41.55;6.93;;;;;;;;;;5032584;28;20105;-45
2023/06/27 12:52:55;;;;;;;43.33;6.47;;;;;;;;;;5032545;28;20091;-46
2023/06/27 12:55:22;;;;;;;32.78;6.05;;;;;;;;;;5032439;28;20041;-46
2023/06/27 12:57:50;;;;;;;42.75;5.75;;;;;;;;;;5032652;28;20072;-46
2023/06/27 13:00:20;;;;;;;50.20;6.47;;;;;;;;;;5032555;28;20109;-47
2023/06/27 13:02:48;;;;;;;36.80;5.45;;;;;;;;;;5032094;28;20041;-45
2023/06/27 13:05:16;;;;;;;42.65;5.75;;;;;;;;;;5032129;28;20511;-46
2023/06/27 13:07:43;;;;;;;50.67;6.80;;;;;;;;;;5032403;28;20017;-45
2023/06/27 13:10:11;;;;;;;36.05;6.18;;;;;;;;;;5032359;28;20030;-47
2023/06/27 13:12:38;;;;;;;37.55;5.75;;;;;;;;;;5032192;28;20040;-46
2023/06/27 13:15:05;;;;;;;32.78;4.85;;;;;;;;;;5032262;28;20026;-46
2023/06/27 13:17:32;;;;;;;31.95;5.07;;;;;;;;;;5032013;28;20045;-46
2023/06/27 13:19:59;;;;;;;39.78;5.68;;;;;;;;;;5032216;28;20079;-47
2023/06/27 13:22:27;;;;;;;32.83;4.72;;;;;;;;;;5031990;28;20034;-47
2023/06/27 13:24:56;;;;;;;23.08;4.63;;;;;;;;;;5032157;28;20360;-46
2023/06/27 13:27:23;;;;;;;35.10;4.63;;;;;;;;;;5031930;28;20033;-46
2023/06/27 13:29:50;;;;;;;40.95;5.10;;;;;;;;;;5032064;28;20472;-49
2023/06/27 13:32:17;;;;;;;30.08;4.75;;;;;;;;;;5031887;28;20084;-46
2023/06/27 13:34:44;;;;;;;24.17;4.50;;;;;;;;;;5031934;28;20495;-48
2023/06/27 13:37:11;;;;;;;27.42;4.32;;;;;;;;;;5031356;28;20029;-46
2023/06/27 13:39:38;;;;;;;32.17;5.10;;;;;;;;;;5031244;28;20167;-46
2023/06/27 13:42:06;;;;;;;25.23;4.65;;;;;;;;;;5030854;28;20384;-48
2023/06/27 13:44:33;;;;;;;27.50;3.97;;;;;;;;;;5024077;28;20028;-46
2023/06/27 13:47:01;;;;;;;24.58;3.85;;;;;;;;;;5040511;28;20574;-49
2023/06/27 13:49:29;;;;;;;25.42;3.60;;;;;;;;;;5040309;28;20031;-45
2023/06/27 13:51:56;;;;;;;20.20;3.42;;;;;;;;;;5039761;28;20092;-48
2023/06/27 13:54:23;;;;;;;22.15;3.80;;;;;;;;;;5040997;28;20376;-46
2023/06/27 13:56:50;;;;;;;13.55;2.88;;;;;;;;;;5038166;28;20029;-49
2023/06/27 13:59:17;;;;;;;12.63;2.97;;;;;;;;;;5030766;28;20410;-48
2023/06/27 14:01:44;;;;;;;18.92;3.08;;;;;;;;;;5030757;28;20041;-46
2023/06/27 14:04:11;;;;;;;12.50;2.10;;;;;;;;;;5030582;28;20057;-46
2023/06/27 14:06:38;;;;;;;14.52;2.80;;;;;;;;;;5031464;28;20391;-45
2023/06/27 14:10:49;;;;;;;18.42;2.75;;;;;;;;;;4961374;27;3295005;-48
2023/06/27 14:13:17;;;;;;;13.73;2.72;;;;;;;;;;5089039;28;20108;-51
2023/06/27 14:15:44;;;;;;;16.60;2.72;;;;;;;;;;5088854;28;20028;-51
2023/06/27 14:21:07;;;;;;;39.67;3.38;;;;;;;;;;4981055;27;2519806;-55
2023/06/27 14:23:35;;;;;;;27.25;2.90;;;;;;;;;;5068791;28;20620;-56
2023/06/27 14:26:03;;;;;;;36.38;3.30;;;;;;;;;;5068962;28;20024;-53
2023/06/27 14:28:32;;;;;;;25.55;2.97;;;;;;;;;;5067404;28;20060;-51
2023/06/27 14:31:00;;;;;;;25.50;3.15;;;;;;;;;;5068042;28;20059;-50
2023/06/27 14:33:27;;;;;;;22.30;3.40;;;;;;;;;;5061461;28;20505;-55
2023/06/27 14:35:55;;;;;;;23.80;3.53;;;;;;;;;;5058051;28;20467;-52
2023/06/27 14:38:22;;;;;;;29.83;3.17;;;;;;;;;;5056808;28;20395;-54
2023/06/27 14:40:49;;;;;;;20.73;3.10;;;;;;;;;;5058541;28;20036;-50
2023/06/27 14:43:19;;;;;;;14.20;2.58;;;;;;;;;;5058326;28;20025;-47
2023/06/27 14:45:46;;;;;;;19.08;2.90;;;;;;;;;;5062571;28;20032;-54
2023/06/27 14:48:14;;;;;;;16.13;2.80;;;;;;;;;;5068432;28;20438;-53
2023/06/27 14:50:42;;;;;;;22.85;2.95;;;;;;;;;;5068313;28;20024;-55
2023/06/27 14:53:09;;;;;;;13.23;2.38;;;;;;;;;;5067602;28;20021;-50